Time;durP1;ratioP1;P1;durP2;ratioP2;P2;SDS_P1;SDS_P2;PMS_P1;PMS_P2;Temp;Humidity;BMP_temperature;BMP_pressure;BME280_temperature;BME280_humidity;BME280_pressure;Samples;Min_cycle;Max_cycle;Signal;HPM_P1;HPM_P2
2021/04/22 00:01:53;;;;;;;7.83;5.97;;;;;;;10.63;65.42;95232.31;5113065;28;20945;-73
2021/04/22 00:04:20;;;;;;;6.47;4.73;;;;;;;10.64;64.66;95233.97;5113183;28;20574;-73
2021/04/22 00:06:48;;;;;;;5.70;5.10;;;;;;;10.61;65.41;95234.22;5113203;28;20441;-74
2021/04/22 00:09:15;;;;;;;7.63;6.27;;;;;;;10.61;65.34;95233.38;5113027;28;20442;-73
2021/04/22 00:11:41;;;;;;;7.40;5.47;;;;;;;10.63;65.03;95231.47;5113185;28;20475;-72
2021/04/22 00:14:07;;;;;;;8.90;5.20;;;;;;;10.61;64.88;95238.63;5112943;28;20448;-74
2021/04/22 00:16:34;;;;;;;7.83;6.43;;;;;;;10.61;65.05;95230.75;5113139;28;20506;-74
2021/04/22 00:19:01;;;;;;;6.23;5.63;;;;;;;10.61;65.20;95233.38;5113010;28;20449;-73
2021/04/22 00:21:28;;;;;;;7.87;6.13;;;;;;;10.55;65.63;95226.84;5112729;28;21043;-73
2021/04/22 00:23:54;;;;;;;7.30;6.57;;;;;;;10.48;65.91;95230.91;5112697;28;20552;-74
2021/04/22 00:26:20;;;;;;;8.83;6.97;;;;;;;10.38;66.30;95230.78;5112857;28;20765;-73
2021/04/22 00:28:47;;;;;;;8.00;6.73;;;;;;;10.33;65.95;95227.69;5112506;28;20448;-73
2021/04/22 00:31:13;;;;;;;9.13;7.20;;;;;;;10.34;66.64;95226.72;5112934;28;20506;-73
2021/04/22 00:33:39;;;;;;;9.13;7.13;;;;;;;10.29;66.09;95226.25;5112869;28;20453;-73
2021/04/22 00:36:08;;;;;;;10.17;7.13;;;;;;;10.21;67.22;95226.88;5076853;28;20857;-73
2021/04/22 00:38:34;;;;;;;8.20;6.60;;;;;;;10.09;66.82;95227.78;5112962;28;20451;-73
2021/04/22 00:41:01;;;;;;;10.03;6.73;;;;;;;10.02;68.03;95226.59;5112906;28;20442;-73
2021/04/22 00:43:27;;;;;;;8.20;6.70;;;;;;;10.06;67.42;95232.41;5112868;28;20492;-73
2021/04/22 00:45:54;;;;;;;9.97;6.13;;;;;;;10.01;67.69;95230.16;5112523;28;20997;-73
2021/04/22 00:48:22;;;;;;;6.30;5.50;;;;;;;10.01;67.45;95218.84;5112799;28;20944;-73
2021/04/22 00:50:50;;;;;;;8.53;5.00;;;;;;;9.99;67.69;95223.38;5112622;28;20445;-73
2021/04/22 00:53:17;;;;;;;8.80;5.83;;;;;;;10.01;67.45;95226.69;5112671;28;20778;-73
2021/04/22 00:55:44;;;;;;;8.00;5.80;;;;;;;9.96;67.49;95226.22;5112782;28;20445;-73
2021/04/22 00:58:11;;;;;;;11.83;6.10;;;;;;;9.96;67.47;95231.47;5112569;28;20953;-73
2021/04/22 01:00:41;;;;;;;7.27;5.87;;;;;;;9.94;67.75;95226.34;5112737;28;20448;-73
2021/04/22 01:03:08;;;;;;;7.27;6.10;;;;;;;9.85;68.57;95227.91;5112770;28;20453;-73
2021/04/22 01:05:38;;;;;;;8.57;6.43;;;;;;;9.83;68.01;95235.03;5116270;28;20786;-73
2021/04/22 01:08:05;;;;;;;8.00;6.20;;;;;;;9.82;68.79;95235.97;5116638;28;20445;-73
2021/04/22 01:10:32;;;;;;;8.67;6.23;;;;;;;9.80;68.66;95245.75;5116407;28;20856;-73
2021/04/22 01:12:58;;;;;;;5.77;5.20;;;;;;;9.81;68.42;95244.78;5116048;28;20437;-73
2021/04/22 01:15:28;;;;;;;9.70;6.03;;;;;;;9.82;68.70;95238.59;5116150;28;20449;-73
2021/04/22 01:17:56;;;;;;;6.73;5.80;;;;;;;9.83;68.53;95247.28;5115669;28;20492;-73
2021/04/22 01:20:24;;;;;;;6.80;5.90;;;;;;;9.84;67.76;95239.34;5079704;28;20429;-73
2021/04/22 01:22:53;;;;;;;7.77;5.70;;;;;;;9.81;68.18;95243.94;5115662;28;20460;-73
2021/04/22 01:25:23;;;;;;;7.23;6.53;;;;;;;9.71;68.41;95254.31;5115662;28;20494;-73
2021/04/22 01:27:50;;;;;;;8.30;6.33;;;;;;;9.65;68.34;95251.31;5115309;28;20445;-73
2021/04/22 01:30:19;;;;;;;9.07;6.13;;;;;;;9.53;68.27;95251.28;5115340;28;20455;-73
2021/04/22 01:32:46;;;;;;;7.33;6.67;;;;;;;9.45;68.88;95253.63;5114911;28;20449;-73
2021/04/22 01:35:14;;;;;;;9.40;6.07;;;;;;;9.39;69.32;95245.41;5115598;28;21037;-73
2021/04/22 01:37:42;;;;;;;7.60;6.60;;;;;;;9.32;70.08;95245.03;5115561;28;20437;-73
2021/04/22 01:40:12;;;;;;;10.80;6.23;;;;;;;9.27;69.93;95241.94;5115830;28;20444;-73
2021/04/22 01:42:38;;;;;;;6.67;6.00;;;;;;;9.23;70.51;95237.84;5115414;28;20463;-73
2021/04/22 01:45:07;;;;;;;7.40;5.40;;;;;;;9.19;70.70;95239.84;5115444;28;20544;-73
2021/04/22 01:47:33;;;;;;;7.00;5.83;;;;;;;9.19;70.94;95245.09;5096836;28;20458;-73
2021/04/22 01:50:00;;;;;;;7.20;5.57;;;;;;;9.16;70.45;95240.09;5115630;28;20436;-73
2021/04/22 01:52:26;;;;;;;10.27;5.93;;;;;;;9.15;70.76;95245.44;5115311;28;20451;-73
2021/04/22 01:54:53;;;;;;;8.37;6.67;;;;;;;9.11;70.76;95244.00;5115477;28;20447;-73
2021/04/22 01:57:20;;;;;;;8.00;5.50;;;;;;;9.07;70.74;95246.00;5115269;28;20452;-74
2021/04/22 01:59:46;;;;;;;8.70;5.80;;;;;;;9.06;71.06;95239.09;5115361;28;20926;-73
2021/04/22 02:02:13;;;;;;;10.80;6.20;;;;;;;9.09;70.37;95238.88;5115307;28;20447;-73
2021/04/22 02:04:39;;;;;;;8.77;5.67;;;;;;;9.08;70.53;95242.44;5115173;28;20586;-73
2021/04/22 02:07:06;;;;;;;8.57;6.07;;;;;;;9.06;70.51;95238.25;5079386;28;20435;-73
2021/04/22 02:09:33;;;;;;;8.50;5.80;;;;;;;8.98;71.11;95239.66;5115162;28;20447;-73
2021/04/22 02:11:59;;;;;;;8.97;6.57;;;;;;;8.99;70.77;95237.88;5115418;28;20460;-73
2021/04/22 02:14:27;;;;;;;8.17;7.00;;;;;;;8.98;71.03;95237.06;5114717;28;20906;-73
2021/04/22 02:16:53;;;;;;;6.83;6.10;;;;;;;8.92;71.30;95239.25;5095077;28;20454;-75
2021/04/22 02:19:20;;;;;;;8.30;5.90;;;;;;;8.95;71.82;95237.25;5115164;27;20455;-73
2021/04/22 02:21:46;;;;;;;6.40;5.77;;;;;;;8.94;71.61;95235.56;5114859;28;20457;-73
2021/04/22 02:24:13;;;;;;;9.27;6.90;;;;;;;8.92;71.98;95236.63;5114733;28;20488;-74
2021/04/22 02:26:39;;;;;;;8.70;7.10;;;;;;;8.88;71.79;95243.88;5095446;28;20436;-73
2021/04/22 02:29:05;;;;;;;8.33;6.73;;;;;;;8.83;72.07;95245.16;5114733;28;20447;-73
2021/04/22 02:31:32;;;;;;;10.57;7.90;;;;;;;8.72;72.37;95243.34;5114832;28;20443;-73
2021/04/22 02:33:59;;;;;;;9.50;7.17;;;;;;;8.68;72.61;95250.56;5114584;28;20447;-74
2021/04/22 02:36:25;;;;;;;9.83;6.90;;;;;;;8.62;72.62;95252.75;5045012;28;20510;-73
2021/04/22 02:38:51;;;;;;;9.60;6.87;;;;;;;8.52;73.17;95246.53;5114679;27;20484;-73
2021/04/22 02:41:18;;;;;;;7.87;5.90;;;;;;;8.49;73.19;95249.34;5114458;28;20442;-73
2021/04/22 02:43:44;;;;;;;10.37;6.80;;;;;;;8.44;73.10;95257.53;5114200;27;20487;-73
2021/04/22 02:46:10;;;;;;;10.37;6.60;;;;;;;8.40;73.32;95256.09;5114545;28;20444;-73
2021/04/22 02:48:38;;;;;;;9.87;6.00;;;;;;;8.32;73.51;95256.56;5114314;28;20504;-73
2021/04/22 02:51:05;;;;;;;11.67;7.37;;;;;;;8.27;73.76;95256.06;5095108;28;20444;-73
2021/04/22 02:53:31;;;;;;;7.73;6.50;;;;;;;8.25;74.23;95257.94;5114426;28;20438;-73
2021/04/22 02:55:58;;;;;;;10.37;6.30;;;;;;;8.21;73.96;95263.50;5114168;28;20446;-73
2021/04/22 02:58:26;;;;;;;9.67;6.53;;;;;;;8.17;74.30;95265.50;5113986;28;20476;-73
2021/04/22 03:00:54;;;;;;;6.90;6.20;;;;;;;8.19;74.48;95268.00;5114370;28;20510;-73
2021/04/22 03:03:20;;;;;;;9.53;5.60;;;;;;;8.21;74.15;95272.19;5095121;28;20511;-74
2021/04/22 03:05:48;;;;;;;10.70;6.30;;;;;;;8.21;74.14;95273.97;5113980;28;20804;-73
2021/04/22 03:08:14;;;;;;;8.07;6.20;;;;;;;8.23;73.91;95269.47;5114098;28;20936;-73
2021/04/22 03:10:41;;;;;;;7.20;5.70;;;;;;;8.22;74.07;95270.41;5113925;28;20472;-73
2021/04/22 03:13:10;;;;;;;8.83;6.30;;;;;;;8.21;73.39;95264.34;5094836;28;20443;-73
2021/04/22 03:15:36;;;;;;;7.07;5.60;;;;;;;8.30;73.37;95262.84;5113806;28;20455;-74
2021/04/22 03:18:05;;;;;;;9.90;6.60;;;;;;;8.30;73.23;95268.06;5113753;28;20450;-73
2021/04/22 03:20:32;;;;;;;5.53;5.00;;;;;;;8.33;73.52;95265.25;5113970;28;20494;-73
2021/04/22 03:22:59;;;;;;;8.70;5.50;;;;;;;8.34;73.10;95266.94;5094611;28;20459;-73
2021/04/22 03:25:27;;;;;;;9.07;7.60;;;;;;;8.34;73.86;95269.56;5113574;28;20484;-73
2021/04/22 03:27:53;;;;;;;7.73;6.00;;;;;;;8.31;73.79;95269.75;5113867;28;20435;-74
2021/04/22 03:30:23;;;;;;;10.93;5.67;;;;;;;8.30;74.06;95270.69;5113632;28;20453;-73
2021/04/22 03:32:49;;;;;;;7.70;6.60;;;;;;;8.29;74.22;95269.84;5113329;28;20493;-73
2021/04/22 03:35:16;;;;;;;7.80;6.70;;;;;;;8.34;74.14;95280.03;5113397;28;20476;-73
2021/04/22 03:37:42;;;;;;;7.63;6.60;;;;;;;8.36;73.91;95280.75;5113552;28;20452;-73
2021/04/22 03:40:12;;;;;;;6.97;5.50;;;;;;;8.38;73.87;95281.47;5113816;28;20450;-74
2021/04/22 03:42:39;;;;;;;8.80;6.47;;;;;;;8.38;76.05;95281.47;5113912;28;20455;-77
2021/04/22 03:45:08;;;;;;;6.50;5.90;;;;;;;8.43;74.22;95294.25;5114355;28;20959;-83
2021/04/22 03:47:34;;;;;;;7.93;6.43;;;;;;;8.48;73.72;95294.75;5113580;28;20440;-76
2021/04/22 03:50:01;;;;;;;10.90;6.93;;;;;;;8.45;73.51;95293.19;5113450;28;20448;-75
2021/04/22 03:52:27;;;;;;;17.87;5.37;;;;;;;8.53;73.31;95285.66;5113158;28;20756;-75
2021/04/22 03:54:55;;;;;;;8.50;6.17;;;;;;;8.67;73.10;95303.84;5112838;28;20542;-75
2021/04/22 03:57:22;;;;;;;6.80;6.10;;;;;;;8.89;71.79;95299.66;5113195;28;20439;-74
2021/04/22 03:59:49;;;;;;;9.87;5.67;;;;;;;9.02;72.15;95297.84;5113472;28;20928;-74
2021/04/22 04:02:15;;;;;;;10.03;6.20;;;;;;;9.17;71.12;95301.97;5113368;28;20440;-74
2021/04/22 04:04:41;;;;;;;5.90;5.20;;;;;;;9.49;70.18;95299.59;5113004;28;20541;-74
2021/04/22 04:07:08;;;;;;;7.77;6.20;;;;;;;9.90;69.06;95300.94;5077591;28;20447;-75
2021/04/22 04:09:34;;;;;;;12.10;6.43;;;;;;;10.41;66.14;95301.41;5027228;28;20948;-75
2021/04/22 04:12:00;;;;;;;7.97;6.50;;;;;;;10.83;65.03;95305.06;5113289;28;20448;-74
2021/04/22 04:14:28;;;;;;;9.53;7.03;;;;;;;11.39;63.14;95298.84;5112967;28;20453;-74
2021/04/22 04:16:54;;;;;;;11.70;6.90;;;;;;;11.88;61.59;95295.66;5113185;28;20437;-75
2021/04/22 04:19:20;;;;;;;11.70;6.10;;;;;;;12.62;58.91;95312.13;5112220;28;20450;-75
2021/04/22 04:21:46;;;;;;;8.30;7.17;;;;;;;13.19;56.13;95312.47;5113287;28;20447;-74
2021/04/22 04:24:13;;;;;;;8.93;6.00;;;;;;;13.81;54.91;95308.66;5100022;28;20900;-75
2021/04/22 04:26:39;;;;;;;7.63;6.30;;;;;;;14.45;52.66;95306.22;5112953;28;20506;-75
2021/04/22 04:29:05;;;;;;;10.83;6.27;;;;;;;15.02;50.82;95314.91;5112860;28;20445;-75
2021/04/22 04:31:33;;;;;;;11.77;7.60;;;;;;;15.47;49.54;95311.44;5112897;28;20758;-76
2021/04/22 04:33:59;;;;;;;9.37;6.20;;;;;;;15.79;48.00;95318.91;5113055;28;20447;-76
2021/04/22 04:36:26;;;;;;;8.87;7.00;;;;;;;16.11;47.46;95321.81;5113267;28;20463;-76
2021/04/22 04:38:52;;;;;;;8.90;6.37;;;;;;;16.34;46.99;95329.28;5114843;28;20529;-75
2021/04/22 04:41:18;;;;;;;13.20;6.50;;;;;;;16.66;45.86;95326.88;5117298;28;20451;-75
2021/04/22 04:43:45;;;;;;;8.90;6.50;;;;;;;16.82;44.99;95327.97;5116771;28;20443;-75
2021/04/22 04:46:12;;;;;;;7.85;7.00;;;;;;;16.96;45.34;95330.03;5116260;28;20439;-75
2021/04/22 04:48:39;;;;;;;774.90;480.30;;;;;;;17.75;57.18;95320.88;5081013;28;20231;-77
2021/04/22 04:51:06;;;;;;;320.33;172.68;;;;;;;19.02;48.89;95332.63;5115381;28;20418;-79
2021/04/22 04:53:32;;;;;;;88.50;48.73;;;;;;;19.93;45.89;95340.03;5117461;28;20202;-77
2021/04/22 04:55:59;;;;;;;11.43;7.93;;;;;;;20.61;39.64;95343.72;5117218;27;20450;-76
2021/04/22 04:58:25;;;;;;;14.00;6.13;;;;;;;20.26;37.69;95327.34;5116613;28;20439;-75
2021/04/22 05:00:51;;;;;;;10.10;6.07;;;;;;;19.73;38.63;95334.34;5116265;28;20486;-75
2021/04/22 05:03:17;;;;;;;13.30;6.60;;;;;;;19.52;39.11;95335.94;5116050;28;20456;-75
2021/04/22 05:05:45;;;;;;;8.90;6.47;;;;;;;19.41;39.37;95343.31;5116623;28;20580;-75
2021/04/22 05:08:11;;;;;;;7.70;5.90;;;;;;;19.29;39.50;95335.84;5096888;28;20436;-74
2021/04/22 05:10:37;;;;;;;6.30;5.70;;;;;;;19.15;39.58;95340.91;5116126;28;20505;-76
2021/04/22 05:13:04;;;;;;;5.07;4.67;;;;;;;19.16;39.90;95345.22;5116656;28;20444;-74
2021/04/22 05:15:30;;;;;;;9.67;6.27;;;;;;;19.02;40.28;95337.09;5116526;28;20439;-74
2021/04/22 05:17:56;;;;;;;8.50;5.97;;;;;;;19.11;40.23;95344.09;5116037;28;20469;-74
2021/04/22 05:20:23;;;;;;;7.53;6.73;;;;;;;19.26;40.03;95336.19;5116262;28;20449;-75
2021/04/22 05:22:50;;;;;;;7.00;6.30;;;;;;;19.34;39.98;95344.16;5116280;28;20561;-75
2021/04/22 05:25:16;;;;;;;14.60;7.00;;;;;;;19.50;39.64;95344.91;5115986;28;20496;-75
2021/04/22 05:27:42;;;;;;;6.30;5.70;;;;;;;19.66;39.56;95340.53;5115819;28;20451;-74
2021/04/22 05:30:10;;;;;;;7.83;5.80;;;;;;;19.83;39.02;95350.09;5115884;28;20445;-75
2021/04/22 05:32:36;;;;;;;8.60;6.97;;;;;;;20.00;40.00;95353.50;5116102;28;20435;-75
2021/04/22 05:35:03;;;;;;;6.93;6.23;;;;;;;20.05;41.01;95351.13;5115687;28;20549;-75
2021/04/22 05:37:29;;;;;;;10.53;6.20;;;;;;;20.02;39.04;95347.00;5115810;28;20804;-74
2021/04/22 05:39:56;;;;;;;9.03;6.80;;;;;;;19.97;39.68;95353.84;5115878;28;20490;-76
2021/04/22 05:42:23;;;;;;;11.17;7.80;;;;;;;20.07;40.13;95354.44;5116134;28;20453;-75
2021/04/22 05:44:49;;;;;;;13.77;8.17;;;;;;;20.07;39.46;95354.44;5115645;28;20999;-75
2021/04/22 05:47:15;;;;;;;11.67;7.67;;;;;;;20.03;39.84;95355.81;5115484;28;20442;-75
2021/04/22 05:49:42;;;;;;;10.67;8.30;;;;;;;20.20;40.09;95362.66;5114926;28;20442;-74
2021/04/22 05:52:08;;;;;;;12.00;9.07;;;;;;;19.96;40.35;95354.88;5115167;28;20441;-75
2021/04/22 05:54:34;;;;;;;11.80;8.20;;;;;;;19.38;41.23;95358.78;5115841;28;20807;-75
2021/04/22 05:57:02;;;;;;;9.47;8.10;;;;;;;19.16;42.12;95355.03;5115860;28;20496;-76
2021/04/22 05:59:28;;;;;;;11.60;9.53;;;;;;;19.04;42.74;95353.72;5115734;28;20526;-75
2021/04/22 06:01:54;;;;;;;10.37;9.20;;;;;;;19.21;42.58;95352.69;5115884;28;20444;-75
2021/04/22 06:04:20;;;;;;;11.00;8.87;;;;;;;18.57;43.70;95363.25;5116132;28;20483;-76
2021/04/22 06:06:47;;;;;;;10.43;9.00;;;;;;;18.22;44.59;95351.16;5079857;28;20497;-75
2021/04/22 06:09:13;;;;;;;11.60;8.70;;;;;;;18.05;45.28;95348.63;5115670;28;20440;-78
2021/04/22 06:11:41;;;;;;;14.00;8.57;;;;;;;17.81;46.60;95354.75;5115870;28;20439;-76
2021/04/22 06:14:08;;;;;;;16.30;8.17;;;;;;;18.24;46.26;95351.81;5080049;28;20525;-75
2021/04/22 06:16:34;;;;;;;23.87;9.20;;;;;;;18.63;45.77;95355.66;5115714;28;20449;-76
2021/04/22 06:19:01;;;;;;;13.17;8.13;;;;;;;18.73;45.52;95358.94;5115379;28;20961;-75
2021/04/22 06:21:27;;;;;;;9.83;7.27;;;;;;;18.84;45.19;95355.94;5115662;28;20443;-76
2021/04/22 06:23:53;;;;;;;16.90;9.07;;;;;;;18.99;45.80;95348.09;5115580;28;20464;-76
2021/04/22 06:26:21;;;;;;;10.63;9.13;;;;;;;19.11;45.63;95352.91;5115230;28;20452;-75
2021/04/22 06:28:49;;;;;;;8.37;7.47;;;;;;;19.30;44.02;95351.66;5113100;28;20922;-76
2021/04/22 06:31:16;;;;;;;15.50;8.87;;;;;;;18.93;43.84;95346.94;5114916;28;20443;-76
2021/04/22 06:33:42;;;;;;;10.80;7.90;;;;;;;18.84;44.84;95347.97;5115067;28;20448;-76
2021/04/22 06:36:09;;;;;;;11.60;8.97;;;;;;;18.76;44.84;95347.97;5114779;28;20462;-75
2021/04/22 06:38:36;;;;;;;12.10;9.20;;;;;;;18.60;44.19;95348.81;5114762;28;20984;-75
2021/04/22 06:41:02;;;;;;;10.40;8.33;;;;;;;18.71;44.81;95350.31;5114876;28;20459;-76
2021/04/22 06:43:29;;;;;;;9.97;8.80;;;;;;;18.89;45.25;95348.28;5115017;28;20447;-75
2021/04/22 06:45:55;;;;;;;9.57;8.33;;;;;;;18.97;44.04;95337.63;5115170;28;20487;-75
2021/04/22 06:48:22;;;;;;;18.10;9.40;;;;;;;19.07;44.08;95345.41;5115161;28;20481;-75
2021/04/22 06:50:49;;;;;;;9.23;8.33;;;;;;;18.87;44.53;95352.94;5115027;27;20460;-75
2021/04/22 06:53:15;;;;;;;10.40;8.97;;;;;;;18.85;44.82;95352.28;5115173;28;20435;-75
2021/04/22 06:55:41;;;;;;;18.87;8.53;;;;;;;18.25;45.46;95344.69;5114744;28;20963;-74
2021/04/22 06:58:08;;;;;;;9.73;8.37;;;;;;;17.89;46.73;95350.25;5114843;28;20452;-75
2021/04/22 07:00:36;;;;;;;9.33;8.00;;;;;;;17.92;45.86;95349.09;5114649;27;20458;-75
2021/04/22 07:03:03;;;;;;;8.50;7.60;;;;;;;17.59;45.88;95356.13;5114071;28;20435;-75
2021/04/22 07:05:30;;;;;;;15.13;8.53;;;;;;;17.24;46.59;95355.34;5114425;28;20478;-75
2021/04/22 07:07:57;;;;;;;8.50;7.43;;;;;;;17.27;47.79;95348.91;5114337;28;20454;-75
2021/04/22 07:10:23;;;;;;;9.60;8.17;;;;;;;16.76;48.74;95357.75;5078716;28;20457;-75
2021/04/22 07:12:50;;;;;;;8.90;7.77;;;;;;;16.72;49.05;95359.88;5114250;28;20452;-75
2021/04/22 07:15:17;;;;;;;9.53;7.70;;;;;;;16.72;49.12;95354.56;5113839;28;20452;-75
2021/04/22 07:17:44;;;;;;;11.03;8.00;;;;;;;16.79;48.74;95354.81;5060469;28;20455;-75
2021/04/22 07:20:14;;;;;;;8.77;7.27;;;;;;;17.09;48.67;95358.78;5094394;28;20791;-80
2021/04/22 07:22:42;;;;;;;10.00;7.73;;;;;;;17.55;46.51;95354.81;5093757;28;20439;-75
2021/04/22 07:25:11;;;;;;;9.03;7.70;;;;;;;17.86;45.90;95353.25;5110069;28;20523;-75
2021/04/22 07:27:37;;;;;;;14.87;8.60;;;;;;;18.06;46.50;95355.63;5110357;28;20838;-76
2021/04/22 07:30:05;;;;;;;9.33;8.37;;;;;;;18.55;45.28;95354.63;5113215;28;20751;-76
2021/04/22 07:32:32;;;;;;;10.30;7.87;;;;;;;18.57;44.35;95365.09;5094046;28;20450;-76
2021/04/22 07:34:58;;;;;;;12.20;7.70;;;;;;;18.63;44.84;95366.28;5112808;28;20824;-76
2021/04/22 07:37:25;;;;;;;15.27;7.40;;;;;;;18.54;44.54;95360.94;5104032;28;20984;-75
2021/04/22 07:39:52;;;;;;;9.47;8.53;;;;;;;18.65;44.36;95356.31;5093918;28;20550;-74
2021/04/22 07:42:19;;;;;;;9.20;8.30;;;;;;;18.63;44.06;95361.78;5095349;28;20452;-74
2021/04/22 07:44:47;;;;;;;9.00;7.93;;;;;;;18.78;43.53;95351.28;5101367;28;20484;-74
2021/04/22 07:47:14;;;;;;;9.30;8.27;;;;;;;18.45;44.81;95363.75;5105214;28;20923;-75
2021/04/22 07:49:40;;;;;;;11.77;7.67;;;;;;;18.51;44.02;95358.63;5113925;28;20443;-75
2021/04/22 07:52:07;;;;;;;11.80;8.07;;;;;;;18.75;43.96;95359.59;5112254;28;20516;-75
2021/04/22 07:54:33;;;;;;;8.63;7.73;;;;;;;18.99;43.91;95343.59;5097789;28;20448;-75
2021/04/22 07:57:01;;;;;;;12.47;8.10;;;;;;;18.75;44.05;95351.63;5079005;28;20448;-75
2021/04/22 07:59:27;;;;;;;11.60;9.20;;;;;;;18.19;45.49;95347.97;5111710;28;20452;-75
2021/04/22 08:01:53;;;;;;;21.47;9.33;;;;;;;18.63;47.22;95343.19;5113878;28;20440;-75
2021/04/22 08:04:20;;;;;;;11.67;8.00;;;;;;;18.71;45.08;95339.69;5113408;28;20491;-74
2021/04/22 08:06:46;;;;;;;10.33;7.70;;;;;;;18.90;44.65;95339.31;5094863;28;20446;-75
2021/04/22 08:09:13;;;;;;;10.30;7.83;;;;;;;18.96;43.12;95335.97;5093364;28;20523;-75
2021/04/22 08:11:39;;;;;;;9.90;7.67;;;;;;;19.17;43.36;95330.91;5095563;28;20447;-75
2021/04/22 08:14:06;;;;;;;14.40;8.00;;;;;;;18.82;42.49;95342.81;5112948;28;20854;-74
2021/04/22 08:16:33;;;;;;;11.40;7.10;;;;;;;18.74;43.12;95334.84;5113506;28;20508;-75
2021/04/22 08:18:59;;;;;;;13.90;8.30;;;;;;;18.29;44.87;95331.88;5108833;28;20441;-74
2021/04/22 08:21:25;;;;;;;10.63;8.50;;;;;;;18.61;44.42;95337.19;5094073;28;20459;-75
2021/04/22 08:23:52;;;;;;;11.00;7.97;;;;;;;18.87;42.94;95323.69;5101533;28;20448;-74
2021/04/22 08:26:19;;;;;;;7.87;7.07;;;;;;;19.12;44.08;95322.63;5108048;28;20480;-75
2021/04/22 08:28:46;;;;;;;8.80;6.97;;;;;;;19.29;43.55;95327.88;5100304;28;20448;-74
2021/04/22 08:31:19;;;;;;;10.47;8.37;;;;;;;19.22;42.26;95321.59;5093119;28;20913;-74
2021/04/22 08:33:47;;;;;;;9.30;7.50;;;;;;;19.26;42.28;95312.25;5093741;28;20449;-75
2021/04/22 08:36:14;;;;;;;7.50;6.73;;;;;;;19.36;41.22;95312.84;5113621;28;20806;-75
2021/04/22 08:38:41;;;;;;;9.60;7.27;;;;;;;18.86;41.88;95316.72;5113272;28;20445;-74
2021/04/22 08:41:08;;;;;;;12.00;7.33;;;;;;;18.43;43.16;95315.25;5108010;28;20447;-75
2021/04/22 08:43:34;;;;;;;19.30;7.60;;;;;;;18.54;44.79;95307.78;5092746;28;20941;-75
2021/04/22 08:46:01;;;;;;;11.20;6.77;;;;;;;18.77;43.35;95304.44;5094909;28;20503;-75
2021/04/22 08:48:29;;;;;;;6.97;6.10;;;;;;;18.58;43.23;95306.44;5057049;28;20500;-76
2021/04/22 08:50:56;;;;;;;8.77;7.10;;;;;;;18.68;43.18;95314.25;5095032;28;20501;-75
2021/04/22 08:53:25;;;;;;;24.77;8.50;;;;;;;18.36;43.30;95304.47;5093047;28;20436;-74
2021/04/22 08:55:52;;;;;;;9.30;7.20;;;;;;;18.26;42.91;95307.31;5092887;28;20955;-75
2021/04/22 08:58:18;;;;;;;10.23;7.67;;;;;;;18.37;42.55;95302.66;5092790;28;20449;-74
2021/04/22 09:00:48;;;;;;;14.53;8.37;;;;;;;18.25;43.24;95303.00;5092769;28;20438;-75
2021/04/22 09:03:14;;;;;;;14.73;9.03;;;;;;;18.08;43.80;95303.16;5096803;28;20456;-75
2021/04/22 09:05:42;;;;;;;8.47;6.60;;;;;;;18.08;43.33;95298.69;5092952;28;20484;-76
2021/04/22 09:08:09;;;;;;;7.77;7.07;;;;;;;17.89;43.80;95296.34;5093084;28;20445;-76
2021/04/22 09:10:36;;;;;;;9.37;7.40;;;;;;;17.49;45.06;95284.63;5124608;27;20440;-76
2021/04/22 09:13:06;;;;;;;9.40;7.30;;;;;;;17.37;44.88;95287.78;5092614;28;20520;-75
2021/04/22 09:15:34;;;;;;;14.37;8.17;;;;;;;17.18;45.21;95289.69;5092705;28;20444;-76
2021/04/22 09:18:04;;;;;;;10.50;7.20;;;;;;;17.44;44.88;95278.16;5100645;28;20455;-75
2021/04/22 09:20:34;;;;;;;11.20;7.20;;;;;;;17.79;43.93;95279.75;5112775;28;20451;-76
2021/04/22 09:23:13;;;;;;;8.90;7.20;;;;;;;18.04;45.01;95277.94;5112943;28;20792;-75
2021/04/22 09:25:39;;;;;;;13.50;8.07;;;;;;;18.36;43.64;95277.06;5115194;28;20483;-74
2021/04/22 09:28:07;;;;;;;8.47;7.50;;;;;;;18.57;41.25;95267.56;5116414;28;20440;-75
2021/04/22 09:30:39;;;;;;;8.23;6.60;;;;;;;18.91;39.95;95263.84;5116611;28;20440;-76
2021/04/22 09:33:06;;;;;;;11.87;6.03;;;;;;;19.18;39.82;95254.59;5116077;28;20443;-74
2021/04/22 09:35:32;;;;;;;9.60;6.73;;;;;;;19.43;39.08;95250.81;5116461;28;20494;-75
2021/04/22 09:37:59;;;;;;;17.73;7.40;;;;;;;19.63;39.95;95253.84;5116296;28;20449;-75
2021/04/22 09:40:30;;;;;;;8.80;5.87;;;;;;;19.87;36.62;95244.03;5116250;28;20450;-75
2021/04/22 09:42:58;;;;;;;6.90;5.60;;;;;;;20.01;37.42;95243.25;5116378;28;20443;-75
2021/04/22 09:45:27;;;;;;;4.90;4.00;;;;;;;20.11;32.35;95246.50;5116343;28;20539;-75
2021/04/22 09:47:53;;;;;;;5.23;4.07;;;;;;;20.32;33.05;95235.16;5116007;28;20452;-75
2021/04/22 09:50:22;;;;;;;5.87;3.90;;;;;;;20.41;32.30;95232.25;5116079;27;20782;-75
2021/04/22 09:52:53;;;;;;;7.90;5.73;;;;;;;20.32;32.99;95229.81;5115696;28;20439;-75
2021/04/22 09:55:22;;;;;;;4.40;3.40;;;;;;;20.46;30.76;95236.22;5115951;28;20441;-75
2021/04/22 09:57:49;;;;;;;4.10;2.73;;;;;;;20.31;28.11;95221.00;5115784;28;20462;-75
2021/04/22 10:00:23;;;;;;;2.40;2.20;;;;;;;20.48;29.53;95223.53;5115954;28;20507;-75
2021/04/22 10:02:53;;;;;;;8.20;2.60;;;;;;;20.62;29.76;95220.06;5115559;28;20459;-75
2021/04/22 10:05:22;;;;;;;3.20;2.23;;;;;;;20.76;26.33;95211.22;5115717;27;20505;-76
2021/04/22 10:07:49;;;;;;;3.93;3.10;;;;;;;20.53;27.80;95206.00;5115023;28;20441;-75
2021/04/22 10:10:19;;;;;;;6.60;5.47;;;;;;;20.44;32.83;95214.25;5078877;28;20446;-75
2021/04/22 10:12:46;;;;;;;5.57;4.97;;;;;;;20.31;34.71;95202.34;5100110;28;20444;-75
2021/04/22 10:15:17;;;;;;;9.90;5.97;;;;;;;20.10;36.12;95208.38;5095743;28;20522;-75
2021/04/22 10:17:52;;;;;;;7.50;4.60;;;;;;;19.53;35.89;95201.81;5095175;28;20561;-75
2021/04/22 10:20:18;;;;;;;4.67;4.10;;;;;;;19.27;34.53;95188.84;5076291;28;20426;-75
2021/04/22 10:22:47;;;;;;;4.53;4.13;;;;;;;19.43;33.64;95181.59;5095129;28;20461;-76
2021/04/22 10:25:16;;;;;;;6.80;4.20;;;;;;;19.59;32.13;95174.50;5094223;28;20485;-76
2021/04/22 10:27:43;;;;;;;4.30;3.40;;;;;;;19.71;32.26;95175.75;5093792;28;20454;-75
2021/04/22 10:30:12;;;;;;;4.37;3.43;;;;;;;19.88;32.10;95184.44;5093887;28;20446;-75
2021/04/22 10:32:40;;;;;;;3.67;2.97;;;;;;;20.01;30.37;95177.50;5093831;28;20440;-75
2021/04/22 10:35:08;;;;;;;6.33;3.50;;;;;;;20.12;30.17;95178.88;5093857;28;20484;-75
2021/04/22 10:37:35;;;;;;;5.83;3.10;;;;;;;20.18;29.15;95179.97;5057522;28;20451;-75
2021/04/22 10:40:04;;;;;;;3.20;2.80;;;;;;;20.26;28.42;95183.41;5093775;28;20446;-76
2021/04/22 10:42:30;;;;;;;2.47;2.27;;;;;;;20.34;28.15;95183.31;5094783;28;20455;-75
2021/04/22 10:44:56;;;;;;;3.07;2.30;;;;;;;20.40;28.47;95185.28;5094178;28;20484;-75
2021/04/22 10:47:24;;;;;;;9.43;2.83;;;;;;;20.45;27.33;95178.56;5094263;28;20449;-76
2021/04/22 10:49:52;;;;;;;11.70;2.37;;;;;;;20.46;26.98;95174.88;5094135;28;20966;-74
2021/04/22 10:52:21;;;;;;;2.47;2.27;;;;;;;20.44;28.54;95172.41;5094301;28;20485;-75
2021/04/22 10:54:50;;;;;;;2.97;2.30;;;;;;;20.48;27.82;95179.03;5059205;28;20451;-75
2021/04/22 10:57:18;;;;;;;9.23;2.47;;;;;;;20.57;27.73;95174.44;5094231;28;20455;-75
2021/04/22 10:59:46;;;;;;;2.50;2.40;;;;;;;20.56;27.92;95178.13;5103165;28;20451;-73
2021/04/22 11:02:14;;;;;;;3.80;2.30;;;;;;;20.64;27.91;95172.69;5114532;28;20460;-73
2021/04/22 11:04:41;;;;;;;2.30;2.10;;;;;;;20.64;26.85;95176.19;5114048;28;20800;-72
2021/04/22 11:07:18;;;;;;;2.63;2.43;;;;;;;20.70;27.78;95164.78;5114048;28;20492;-73
2021/04/22 11:09:45;;;;;;;6.30;2.93;;;;;;;20.73;27.86;95163.56;5114027;28;20475;-73
2021/04/22 11:12:11;;;;;;;4.33;2.30;;;;;;;20.62;28.60;95161.38;5111833;28;20461;-72
2021/04/22 11:14:41;;;;;;;2.30;2.10;;;;;;;20.51;27.39;95159.16;5113815;28;20911;-73
2021/04/22 11:17:09;;;;;;;2.30;2.10;;;;;;;20.39;27.47;95156.94;5113907;28;20938;-73
2021/04/22 11:19:37;;;;;;;2.60;2.40;;;;;;;20.21;28.72;95147.63;5114111;28;20443;-73
2021/04/22 11:22:19;;;;;;;5.87;3.30;;;;;;;20.19;28.63;95155.81;5113871;28;20445;-73
2021/04/22 11:24:53;;;;;;;3.63;2.70;;;;;;;20.13;29.58;95148.56;5113581;28;20489;-73
2021/04/22 11:27:20;;;;;;;8.13;2.53;;;;;;;20.06;28.86;95150.31;5077881;28;20493;-73
2021/04/22 11:29:49;;;;;;;21.70;4.30;;;;;;;20.04;29.42;95144.34;5113658;28;20917;-74
2021/04/22 11:32:21;;;;;;;4.23;2.57;;;;;;;20.13;28.82;95143.22;5113430;28;20474;-73